TimeEDT,TemperatureF,Dew PointF,Humidity,Sea Level PressureIn,VisibilityMPH,Wind Direction,Wind SpeedMPH,Gust SpeedMPH,PrecipitationIn,Events,Conditions,WindDirDegrees,DateUTC
12:53 AM,63.0,57.0,81,29.99,4.0,SW,4.6,-,N/A,,Haze,220,2013-10-01 04:53:00
1:53 AM,61.0,55.9,83,30.00,3.0,SW,4.6,-,N/A,,Haze,230,2013-10-01 05:53:00
2:09 AM,60.8,55.4,82,30.01,2.5,SW,3.5,-,N/A,,Haze,230,2013-10-01 06:09:00
2:37 AM,60.8,55.4,82,30.01,3.0,SW,5.8,-,N/A,,Haze,220,2013-10-01 06:37:00
2:53 AM,61.0,55.9,83,30.01,3.0,SW,4.6,-,N/A,,Haze,230,2013-10-01 06:53:00
3:53 AM,61.0,55.0,81,30.01,3.0,SSW,3.5,-,0.01,,Haze,200,2013-10-01 07:53:00
4:19 AM,59.0,53.6,82,30.02,2.0,South,3.5,-,N/A,,Haze,190,2013-10-01 08:19:00
4:28 AM,59.0,53.6,82,30.02,1.8,South,3.5,-,N/A,,Haze,180,2013-10-01 08:28:00
4:53 AM,59.0,54.0,83,30.02,1.2,South,3.5,-,N/A,,Haze,180,2013-10-01 08:53:00
5:07 AM,59.0,53.6,82,30.03,0.8,South,3.5,-,N/A,,Haze,190,2013-10-01 09:07:00
5:32 AM,59.0,53.6,82,30.03,0.5,SSW,3.5,-,N/A,,Haze,200,2013-10-01 09:32:00
5:53 AM,57.9,53.1,84,30.03,0.5,Calm,Calm,-,N/A,,Haze,0,2013-10-01 09:53:00
6:01 AM,57.2,51.8,82,30.04,0.8,SSW,3.5,-,N/A,,Haze,210,2013-10-01 10:01:00
6:15 AM,57.2,53.6,88,30.05,1.0,SSW,4.6,-,N/A,,Clear,210,2013-10-01 10:15:00
6:29 AM,57.2,53.6,88,30.05,2.0,SSW,3.5,-,N/A,,Haze,210,2013-10-01 10:29:00
6:51 AM,57.2,53.6,88,30.05,1.8,SW,5.8,-,N/A,,Haze,230,2013-10-01 10:51:00
6:53 AM,57.9,53.1,84,30.05,1.8,SW,4.6,-,N/A,,Haze,230,2013-10-01 10:53:00
7:53 AM,59.0,54.0,83,30.06,1.0,SSW,4.6,-,N/A,,Haze,210,2013-10-01 11:53:00
8:53 AM,64.0,57.9,80,30.06,2.0,WSW,4.6,-,N/A,,Haze,240,2013-10-01 12:53:00
9:26 AM,66.2,60.8,83,30.07,3.0,SW,4.6,-,N/A,,Haze,230,2013-10-01 13:26:00
9:53 AM,70.0,61.0,73,30.06,4.0,SW,6.9,-,N/A,,Haze,230,2013-10-01 13:53:00
10:53 AM,73.9,62.1,66,30.07,8.0,WSW,5.8,-,N/A,,Partly Cloudy,250,2013-10-01 14:53:00
11:46 AM,77.0,60.8,57,30.07,10.0,WSW,8.1,-,N/A,,Overcast,250,2013-10-01 15:46:00
11:53 AM,79.0,62.1,56,30.06,10.0,SW,8.1,-,N/A,,Overcast,230,2013-10-01 15:53:00
12:06 PM,78.8,60.8,54,30.06,10.0,SW,10.4,16.1,N/A,,Mostly Cloudy,220,2013-10-01 16:06:00
12:53 PM,79.0,60.1,52,30.04,10.0,West,9.2,-,N/A,,Scattered Clouds,270,2013-10-01 16:53:00
1:53 PM,81.0,59.0,47,30.02,10.0,WSW,13.8,17.3,N/A,,Partly Cloudy,240,2013-10-01 17:53:00
2:53 PM,82.9,59.0,44,30.00,10.0,SW,13.8,20.7,N/A,,Clear,220,2013-10-01 18:53:00
3:53 PM,81.0,57.9,45,29.99,10.0,WSW,9.2,19.6,N/A,,Scattered Clouds,240,2013-10-01 19:53:00
4:53 PM,82.9,57.0,41,29.98,10.0,WSW,10.4,21.9,N/A,,Scattered Clouds,250,2013-10-01 20:53:00
5:53 PM,81.0,55.9,42,29.98,10.0,SW,8.1,-,N/A,,Clear,230,2013-10-01 21:53:00
6:53 PM,75.0,57.0,53,29.98,10.0,SW,6.9,-,N/A,,Clear,230,2013-10-01 22:53:00
7:53 PM,70.0,57.0,63,29.99,10.0,WSW,3.5,-,N/A,,Clear,240,2013-10-01 23:53:00
8:53 PM,66.0,55.9,70,30.00,10.0,SW,4.6,-,N/A,,Clear,230,2013-10-02 00:53:00
9:53 PM,64.9,55.9,73,30.01,10.0,Calm,Calm,-,N/A,,Clear,0,2013-10-02 01:53:00
10:53 PM,62.1,55.0,78,30.01,10.0,SSW,3.5,-,N/A,,Clear,210,2013-10-02 02:53:00
11:53 PM,63.0,55.9,78,30.01,10.0,SW,4.6,-,N/A,,Clear,220,2013-10-02 03:53:00